This is the latest recevied weather packets stored in our database for station/object AE6EO. If no packets are shown the sender has not sent any weather packets the latest 10 day(s).
| Time | Temp. | Humidity | Pressure | Rain* | Wind** | Luminosity | Snow |
|---|---|---|---|---|---|---|---|
| 1777932315 | 18.33° C | 59% | 1015.9 hPa | 0 mm | - | - | - |
| 1777929935 | 20° C | 54% | 1015.9 hPa | 0 mm | - | - | - |
| 1777928716 | 20° C | 55% | 1016 hPa | 0 mm | - | - | - |
| 1777928155 | 19.44° C | 55% | 1016 hPa | 0 mm | - | - | - |
| 1777923915 | 16.67° C | 65% | 1016.4 hPa | 0 mm | - | - | - |
| 1777922736 | 16.67° C | 67% | 1016.4 hPa | 0 mm | - | - | - |
| 1777920916 | 16.67° C | 64% | 1016.4 hPa | 0 mm | - | - | - |
| 1777915537 | 17.78° C | 61% | 1015.8 hPa | 0 mm | - | - | - |
| 1777910716 | 16.11° C | 66% | 1016 hPa | 0 mm | - | - | - |
| 1777910115 | 16.11° C | 67% | 1016 hPa | 0 mm | - | - | - |
| 1777905917 | 12.78° C | 79% | 1016 hPa | 0 mm | - | - | - |
| 1777904715 | 11.11° C | 85% | 1015.9 hPa | 0 mm | - | - | - |
| 1777903517 | 9.44° C | 89% | 1015.9 hPa | 0 mm | - | - | - |
| 1777902916 | 9.44° C | 89% | 1015.9 hPa | 0 mm | - | - | - |
| 1777900515 | 8.89° C | 87% | 1015.3 hPa | 0 mm | - | - | - |
| 1777899316 | 9.44° C | 87% | 1015.3 hPa | 0 mm | - | - | - |
| 1777896915 | 9.44° C | 88% | 1015.4 hPa | 0 mm | - | - | - |
| 1777896315 | 8.89° C | 88% | 1015.4 hPa | 0 mm | - | - | - |
| 1777891516 | 10° C | 85% | 1015.4 hPa | 0 mm | - | - | - |
| 1777890915 | 10° C | 85% | 1015.4 hPa | 0 mm | - | - | - |
| 1777890316 | 10° C | 85% | 1015.4 hPa | 0 mm | - | - | - |
| 1777888515 | 10.56° C | 84% | 1015.2 hPa | 0 mm | - | - | - |
| 1777881917 | 12.22° C | 77% | 1015.7 hPa | 0 mm | - | - | - |
| 1777881316 | 12.22° C | 76% | 1015.7 hPa | 0 mm | - | - | - |
| 1777871716 | 13.33° C | 74% | 1015.3 hPa | 0 mm | - | - | - |
* Rain latest hour (hover to see other rain measurements)
** Current wind speed in m/s (hover to see current wind gust speed)